EGYM - Marham
Distance from station: E 5mi, 14km
Updated: 10/20/2017 11:50am
Few Clouds
Few Clouds
 Wind from S
Wind: S 7 mph , 11 km/h
Temperature: 50°F , 10°C
Wind Chill: 47°F , 8°C
Dew Point: 45°F , 7°C
Humidity: 82%
Barometer: 29.74 inHg , 1007 hPa
Clouds: Few Clouds
Visibility: 6 miles , 10 km
Cloud details: Few Clouds 21000 ft
2017/10/20 18:50 EGYM 201850Z AUTO 18006KT 9999 FEW210/// 10/07 Q1007